createdAt,value
2019-05-01T00:01:16.891Z,13.62
2019-05-01T00:06:54.634Z,14.15
2019-05-01T00:09:43.225Z,12.03
2019-05-01T00:12:32.813Z,12.07
2019-05-01T00:17:47.494Z,13.10
2019-05-01T00:20:36.529Z,11.80
2019-05-01T00:23:18.851Z,11.53
2019-05-01T00:28:43.191Z,13.15
2019-05-01T00:31:32.894Z,12.10
2019-05-01T00:34:21.940Z,12.82
2019-05-01T00:37:11.021Z,10.38
2019-05-01T00:39:59.932Z,10.25
2019-05-01T00:42:49.133Z,9.25
2019-05-01T00:48:03.978Z,9.30
2019-05-01T00:50:52.333Z,10.10
2019-05-01T00:53:41.698Z,9.63
2019-05-01T00:56:33.049Z,9.95
2019-05-01T00:59:24.353Z,8.55
2019-05-01T01:04:56.934Z,8.38
2019-05-01T01:07:45.537Z,8.45
2019-05-01T01:10:34.919Z,8.58
2019-05-01T01:13:24.494Z,8.60
2019-05-01T01:16:14.010Z,10.32
2019-05-01T01:19:03.004Z,8.40
2019-05-01T01:21:51.755Z,8.90
2019-05-01T01:24:40.871Z,8.48
2019-05-01T01:27:30.578Z,8.65
2019-05-01T01:30:23.690Z,10.10
2019-05-01T01:33:12.814Z,9.78
2019-05-01T01:36:02.038Z,9.65
2019-05-01T01:38:51.410Z,8.70
2019-05-01T01:41:40.635Z,7.90
2019-05-01T01:44:31.746Z,8.60
2019-05-01T01:47:21.090Z,8.08
2019-05-01T01:52:36.369Z,8.23
2019-05-01T01:55:25.975Z,8.30
2019-05-01T01:58:15.798Z,8.08
2019-05-01T02:00:42.824Z,8.65
2019-05-01T02:03:34.381Z,8.03
2019-05-01T02:06:23.844Z,7.42
2019-05-01T02:09:13.268Z,8.33
2019-05-01T02:14:28.100Z,8.28
2019-05-01T02:17:17.106Z,8.13
2019-05-01T02:20:06.184Z,8.30
2019-05-01T02:25:22.616Z,8.25
2019-05-01T02:28:22.764Z,8.03
2019-05-01T02:31:31.122Z,9.08
2019-05-01T02:36:46.803Z,8.50
2019-05-01T02:39:37.820Z,8.53
2019-05-01T02:42:31.168Z,8.18
2019-05-01T02:45:20.828Z,8.88
2019-05-01T02:48:11.582Z,8.65
2019-05-01T02:56:28.047Z,9.15
2019-05-01T02:59:21.629Z,8.80
2019-05-01T03:02:12.420Z,9.15
2019-05-01T03:05:01.793Z,10.10
2019-05-01T03:07:53.920Z,9.85
2019-05-01T03:10:43.828Z,9.38
2019-05-01T03:15:59.133Z,9.38
2019-05-01T03:18:49.700Z,9.50
2019-05-01T03:21:41.742Z,10.78
2019-05-01T03:26:57.285Z,10.15
2019-05-01T03:29:46.670Z,10.25
2019-05-01T03:32:36.579Z,11.12
2019-05-01T03:37:51.617Z,11.25
2019-05-01T03:40:40.887Z,11.95
2019-05-01T03:43:44.867Z,10.68
2019-05-01T03:46:33.826Z,10.58
2019-05-01T03:49:23.010Z,11.43
2019-05-01T03:52:12.431Z,10.70
2019-05-01T03:55:02.333Z,11.75
2019-05-01T03:57:52.428Z,11.28
2019-05-01T04:00:45.603Z,11.70
2019-05-01T04:03:33.901Z,11.08
2019-05-01T04:06:16.424Z,11.45
2019-05-01T04:08:58.707Z,10.80
2019-05-01T04:11:34.875Z,10.82
2019-05-01T04:14:18.196Z,11.63
2019-05-01T04:17:03.338Z,11.05
2019-05-01T04:19:53.784Z,11.15
2019-05-01T04:22:43.327Z,11.33
2019-05-01T04:25:33.831Z,11.53
2019-05-01T04:28:40.996Z,10.75
2019-05-01T04:31:26.517Z,11.57
2019-05-01T04:34:13.825Z,11.25
2019-05-01T04:37:09.764Z,11.95
2019-05-01T04:39:45.774Z,12.60
2019-05-01T04:42:29.755Z,10.95
2019-05-01T04:45:05.923Z,10.80
2019-05-01T04:47:48.699Z,11.10
2019-05-01T04:50:31.431Z,11.10
2019-05-01T04:53:34.990Z,11.53
2019-05-01T04:56:24.755Z,11.53
2019-05-01T04:58:51.776Z,11.20
2019-05-01T05:01:58.538Z,11.18
2019-05-01T05:04:25.586Z,11.03
2019-05-01T05:07:16.291Z,11.03
2019-05-01T05:10:05.615Z,10.10
2019-05-01T05:12:59.256Z,11.33
2019-05-01T05:15:53.123Z,10.78
2019-05-01T05:18:42.712Z,10.40
2019-05-01T05:21:32.543Z,10.53
2019-05-01T05:24:23.099Z,10.70
2019-05-01T05:27:14.281Z,9.88
2019-05-01T05:30:04.774Z,9.90
2019-05-01T05:38:04.802Z,9.65
2019-05-01T05:40:56.556Z,9.30
2019-05-01T05:43:39.549Z,9.60
2019-05-01T05:46:16.131Z,9.33
2019-05-01T05:49:05.792Z,9.45
2019-05-01T05:57:40.028Z,9.60
2019-05-01T06:00:31.973Z,8.80
2019-05-01T06:03:43.206Z,8.78
2019-05-01T06:09:02.374Z,8.25
2019-05-01T06:12:04.828Z,8.83
2019-05-01T06:15:02.482Z,8.25
2019-05-01T06:17:52.266Z,8.53
2019-05-01T06:20:45.906Z,8.30
2019-05-01T06:23:42.659Z,7.15
2019-05-01T06:26:42.531Z,7.33
2019-05-01T06:29:17.139Z,8.55
2019-05-01T06:32:00.063Z,7.70
2019-05-01T06:34:43.073Z,7.35
2019-05-01T06:37:32.851Z,7.25
2019-05-01T06:40:24.696Z,6.45
2019-05-01T06:42:51.728Z,7.03
2019-05-01T06:45:42.359Z,6.37
2019-05-01T06:48:36.376Z,6.92
2019-05-01T06:54:25.519Z,5.58
2019-05-01T06:59:41.564Z,6.42
2019-05-01T07:05:09.168Z,5.08
2019-05-01T07:10:43.636Z,4.90
2019-05-01T07:13:24.937Z,4.95
2019-05-01T07:16:13.683Z,5.20
2019-05-01T07:21:32.644Z,4.87
2019-05-01T07:24:24.138Z,6.28
2019-05-01T07:27:11.348Z,4.97
2019-05-01T07:32:26.818Z,4.85
2019-05-01T07:35:16.727Z,4.70
2019-05-01T07:38:06.005Z,4.70
2019-05-01T07:40:58.809Z,5.28
2019-05-01T07:43:59.729Z,5.70
2019-05-01T07:49:37.716Z,4.58
2019-05-01T07:52:26.638Z,4.80
2019-05-01T07:55:18.390Z,5.10
2019-05-01T07:58:10.509Z,4.45
2019-05-01T08:00:41.250Z,4.83
2019-05-01T08:03:28.235Z,4.60
2019-05-01T08:06:21.788Z,4.47
2019-05-01T08:11:39.185Z,5.05
2019-05-01T08:14:25.405Z,4.70
2019-05-01T08:17:18.137Z,4.72
2019-05-01T08:20:16.823Z,4.95
2019-05-01T08:22:59.599Z,3.85
2019-05-01T08:25:41.368Z,4.10
2019-05-01T08:28:35.509Z,4.10
2019-05-01T08:31:45.404Z,3.80
2019-05-01T08:34:48.398Z,4.00
2019-05-01T08:37:27.811Z,4.60
2019-05-01T08:39:54.857Z,4.40
2019-05-01T08:42:44.293Z,4.33
2019-05-01T08:45:51.560Z,4.53
2019-05-01T08:48:42.850Z,4.85
2019-05-01T08:51:34.839Z,4.58
2019-05-01T08:54:21.224Z,4.67
2019-05-01T08:57:10.560Z,4.03
2019-05-01T09:02:27.430Z,4.53
2019-05-01T09:07:43.736Z,3.58
2019-05-01T09:10:33.587Z,3.80
2019-05-01T09:13:23.801Z,5.45
2019-05-01T09:16:13.663Z,3.80
2019-05-01T09:19:03.120Z,4.00
2019-05-01T09:21:52.302Z,3.92
2019-05-01T09:24:41.811Z,4.20
2019-05-01T09:30:31.356Z,4.00
2019-05-01T09:35:46.790Z,4.17
2019-05-01T09:38:36.145Z,6.42
2019-05-01T09:41:37.623Z,3.95
2019-05-01T09:46:42.569Z,3.62
2019-05-01T09:49:32.685Z,3.87
2019-05-01T09:55:17.943Z,4.08
2019-05-01T09:58:08.399Z,3.80
2019-05-01T10:01:00.162Z,3.60
2019-05-01T10:03:54.523Z,3.85
2019-05-01T10:06:41.101Z,4.15
2019-05-01T10:09:30.215Z,3.95
2019-05-01T10:12:19.278Z,3.62
2019-05-01T10:15:08.637Z,3.70
2019-05-01T10:17:57.599Z,3.75
2019-05-01T10:20:46.492Z,4.10
2019-05-01T10:23:36.039Z,4.08
2019-05-01T10:26:27.803Z,4.15
2019-05-01T10:29:35.516Z,4.60
2019-05-01T10:32:26.988Z,4.60
2019-05-01T10:35:42.290Z,5.40
2019-05-01T10:38:24.798Z,4.87
2019-05-01T10:41:14.122Z,5.03
2019-05-01T10:44:03.146Z,5.28
2019-05-01T10:46:51.824Z,4.60
2019-05-01T10:49:40.429Z,5.58
2019-05-01T10:52:29.861Z,4.50
2019-05-01T10:55:20.567Z,4.78
2019-05-01T10:58:12.875Z,4.75
2019-05-01T11:01:03.543Z,4.60
2019-05-01T11:03:52.356Z,4.62
2019-05-01T11:11:42.999Z,5.37
2019-05-01T11:14:33.171Z,4.70
2019-05-01T11:17:00.207Z,4.20
2019-05-01T11:19:50.245Z,4.90
2019-05-01T11:22:39.421Z,4.50
2019-05-01T11:25:30.216Z,4.72
2019-05-01T11:28:12.982Z,5.78
2019-05-01T11:31:02.872Z,5.20
2019-05-01T11:34:04.046Z,4.55
2019-05-01T11:42:21.844Z,4.55
2019-05-01T11:45:12.122Z,4.97
2019-05-01T11:48:08.881Z,5.85
2019-05-01T11:50:35.927Z,6.25
2019-05-01T11:53:26.083Z,4.83
2019-05-01T11:56:15.459Z,5.20
2019-05-01T11:59:03.944Z,4.75
2019-05-01T12:01:53.839Z,5.10
2019-05-01T12:04:42.897Z,5.47
2019-05-01T12:07:32.093Z,5.20
2019-05-01T12:10:22.449Z,5.72
2019-05-01T12:13:12.175Z,5.67
2019-05-01T12:16:03.220Z,5.80
2019-05-01T12:18:52.611Z,5.50
2019-05-01T12:24:07.468Z,6.03
2019-05-01T12:26:56.245Z,17.73
2019-05-01T12:29:45.353Z,5.83
2019-05-01T12:32:35.098Z,5.10
2019-05-01T12:35:24.347Z,5.78
2019-05-01T12:38:13.935Z,5.40
2019-05-01T12:45:56.670Z,5.90
2019-05-01T12:48:45.582Z,6.03
2019-05-01T12:51:35.044Z,5.62
2019-05-01T12:54:26.425Z,5.70
2019-05-01T12:57:16.142Z,5.80
2019-05-01T13:00:08.941Z,5.87
2019-05-01T13:02:56.794Z,5.35
2019-05-01T13:05:46.284Z,5.30
2019-05-01T13:08:35.466Z,5.55
2019-05-01T13:16:17.264Z,5.85
2019-05-01T13:19:06.825Z,5.60
2019-05-01T13:21:49.374Z,5.90
2019-05-01T13:24:32.164Z,6.17
2019-05-01T13:27:16.150Z,6.03
2019-05-01T13:35:01.646Z,6.10
2019-05-01T13:37:28.657Z,6.78
2019-05-01T13:45:23.622Z,6.12
2019-05-01T13:48:13.720Z,6.65
2019-05-01T13:51:03.538Z,6.33
2019-05-01T13:56:18.945Z,6.10
2019-05-01T13:59:08.233Z,5.72
2019-05-01T14:01:58.053Z,5.40
2019-05-01T14:07:16.638Z,6.08
2019-05-01T14:10:03.764Z,5.25
2019-05-01T14:12:52.621Z,5.58
2019-05-01T14:18:08.070Z,5.85
2019-05-01T14:21:01.145Z,5.87
2019-05-01T14:26:33.803Z,5.55
2019-05-01T14:29:23.845Z,6.70
2019-05-01T14:32:13.270Z,6.97
2019-05-01T14:35:02.940Z,7.12
2019-05-01T14:37:52.577Z,7.55
2019-05-01T14:40:41.485Z,7.25
2019-05-01T14:43:30.308Z,7.35
2019-05-01T14:46:19.318Z,7.85
2019-05-01T14:49:08.475Z,8.03
2019-05-01T14:51:57.544Z,7.15
2019-05-01T14:54:47.721Z,7.72
2019-05-01T14:57:37.640Z,8.48
2019-05-01T15:00:28.063Z,9.50
2019-05-01T15:03:17.586Z,9.13
2019-05-01T15:06:06.698Z,9.70
2019-05-01T15:11:22.726Z,10.95
2019-05-01T15:14:14.782Z,11.57
2019-05-01T15:19:54.415Z,11.90
2019-05-01T15:22:43.963Z,11.57
2019-05-01T15:25:33.585Z,12.05
2019-05-01T15:30:49.232Z,13.62
2019-05-01T15:33:38.895Z,14.25
2019-05-01T15:36:27.787Z,15.40
2019-05-01T15:39:20.986Z,17.82
2019-05-01T15:42:14.586Z,22.80
2019-05-01T15:45:04.306Z,20.17
2019-05-01T15:47:54.115Z,29.63
2019-05-01T15:53:09.874Z,36.90
2019-05-01T15:55:59.077Z,35.90
2019-05-01T15:58:48.154Z,35.55
2019-05-01T16:01:37.477Z,33.35
2019-05-01T16:04:26.880Z,31.52
2019-05-01T16:07:16.918Z,27.52
2019-05-01T16:12:38.864Z,20.97
2019-05-01T16:15:30.385Z,27.73
2019-05-01T16:18:19.464Z,24.92
2019-05-01T16:21:08.624Z,27.17
2019-05-01T16:23:57.600Z,27.65
2019-05-01T16:26:46.895Z,27.60
2019-05-01T16:29:35.512Z,27.60
2019-05-01T16:34:59.306Z,27.37
2019-05-01T16:37:48.043Z,26.90
2019-05-01T16:40:53.559Z,29.40
2019-05-01T16:43:43.160Z,22.70
2019-05-01T16:46:35.028Z,28.77
2019-05-01T16:49:25.117Z,25.75
2019-05-01T16:52:14.207Z,20.60
2019-05-01T16:55:03.700Z,25.65
2019-05-01T16:57:53.291Z,26.15
2019-05-01T17:01:16.701Z,21.45
2019-05-01T17:07:13.492Z,25.65
2019-05-01T17:10:20.528Z,25.88
2019-05-01T17:18:05.812Z,24.15
2019-05-01T17:20:55.634Z,19.90
2019-05-01T17:23:33.833Z,21.17
2019-05-01T17:26:16.954Z,15.85
2019-05-01T17:29:00.118Z,20.27
2019-05-01T17:31:49.334Z,20.72
2019-05-01T17:37:04.791Z,21.07
2019-05-01T17:39:54.757Z,19.90
2019-05-01T17:42:44.395Z,21.40
2019-05-01T17:45:34.811Z,22.02
2019-05-01T17:48:28.976Z,19.02
2019-05-01T17:51:19.688Z,20.95
2019-05-01T17:54:08.266Z,20.90
2019-05-01T17:56:57.718Z,21.55
2019-05-01T17:59:47.174Z,18.92
2019-05-01T18:02:14.263Z,20.55
2019-05-01T18:05:19.781Z,20.68
2019-05-01T18:10:38.591Z,20.57
2019-05-01T18:13:25.721Z,21.17
2019-05-01T18:16:15.750Z,22.25
2019-05-01T18:19:04.969Z,21.60
2019-05-01T18:21:56.386Z,21.37
2019-05-01T18:24:58.559Z,19.95
2019-05-01T18:27:55.693Z,21.75
2019-05-01T18:30:51.629Z,21.12
2019-05-01T18:41:26.647Z,22.30
2019-05-01T18:44:15.734Z,19.73
2019-05-01T18:47:05.296Z,18.62
2019-05-01T18:49:54.820Z,14.93
2019-05-01T18:52:44.488Z,16.82
2019-05-01T18:55:34.434Z,13.88
2019-05-01T18:58:23.742Z,16.40
2019-05-01T19:01:13.212Z,14.43
2019-05-01T19:04:03.413Z,14.40
2019-05-01T19:06:52.786Z,13.60
2019-05-01T19:09:41.949Z,14.85
2019-05-01T19:12:31.498Z,13.88
2019-05-01T19:15:20.939Z,13.62
2019-05-01T19:18:09.910Z,13.20
2019-05-01T19:21:00.126Z,13.55
2019-05-01T19:23:50.033Z,14.58
2019-05-01T19:26:42.737Z,13.15
2019-05-01T19:29:33.849Z,12.70
2019-05-01T19:35:07.826Z,13.32
2019-05-01T19:37:59.051Z,13.03
2019-05-01T19:40:48.818Z,9.95
2019-05-01T19:43:40.555Z,12.20
2019-05-01T19:46:29.646Z,12.60
2019-05-01T19:49:24.498Z,9.98
2019-05-01T19:52:11.369Z,12.27
2019-05-01T19:57:35.776Z,11.60
2019-05-01T20:00:28.510Z,12.15
2019-05-01T20:06:09.763Z,13.08
2019-05-01T20:08:58.927Z,13.18
2019-05-01T20:11:48.404Z,9.50
2019-05-01T20:14:38.311Z,11.50
2019-05-01T20:17:27.993Z,13.35
2019-05-01T20:20:18.362Z,11.83
2019-05-01T20:23:08.350Z,11.25
2019-05-01T20:25:57.701Z,13.35
2019-05-01T20:28:47.467Z,14.38
2019-05-01T20:31:36.826Z,12.05
2019-05-01T20:34:26.304Z,12.23
2019-05-01T20:37:15.397Z,12.90
2019-05-01T20:40:10.478Z,13.83
2019-05-01T20:42:36.480Z,13.80
2019-05-01T20:45:19.753Z,14.73
2019-05-01T20:48:02.894Z,13.58
2019-05-01T20:50:45.860Z,14.03
2019-05-01T20:53:22.272Z,11.33
2019-05-01T20:56:06.296Z,13.78
2019-05-01T20:58:42.877Z,12.80
2019-05-01T21:01:28.187Z,12.55
2019-05-01T21:04:07.785Z,13.18
2019-05-01T21:07:09.773Z,13.18
2019-05-01T21:09:57.909Z,10.38
2019-05-01T21:12:45.638Z,11.15
2019-05-01T21:15:28.732Z,12.28
2019-05-01T21:18:11.650Z,12.33
2019-05-01T21:21:03.478Z,12.68
2019-05-01T21:26:28.097Z,12.13
2019-05-01T21:29:17.398Z,10.88
2019-05-01T21:32:06.673Z,13.28
2019-05-01T21:34:56.600Z,12.68
2019-05-01T21:37:46.087Z,10.65
2019-05-01T21:40:40.365Z,12.28
2019-05-01T21:43:27.906Z,8.93
2019-05-01T21:46:16.781Z,13.05
2019-05-01T21:49:06.684Z,13.28
2019-05-01T21:51:56.129Z,13.85
2019-05-01T21:54:45.210Z,14.43
2019-05-01T21:57:37.751Z,14.95
2019-05-01T22:00:27.412Z,16.48
2019-05-01T22:05:51.160Z,14.50
2019-05-01T22:08:41.166Z,17.85
2019-05-01T22:11:33.016Z,17.98
2019-05-01T22:16:47.825Z,18.17
2019-05-01T22:19:37.136Z,17.25
2019-05-01T22:22:45.906Z,20.80
2019-05-01T22:25:37.384Z,20.25
2019-05-01T22:34:18.504Z,22.75
2019-05-01T22:37:08.139Z,22.62
2019-05-01T22:40:03.375Z,23.05
2019-05-01T22:42:52.639Z,20.95
2019-05-01T22:45:41.983Z,16.97
2019-05-01T22:48:30.773Z,24.07
2019-05-01T22:51:21.880Z,24.15
2019-05-01T22:54:11.645Z,22.55
2019-05-01T22:57:01.032Z,15.38
2019-05-01T22:59:50.267Z,23.10
2019-05-01T23:02:46.589Z,24.18
2019-05-01T23:05:49.113Z,24.27
2019-05-01T23:08:38.071Z,23.87
2019-05-01T23:11:28.822Z,23.98
2019-05-01T23:14:11.069Z,22.87
2019-05-01T23:17:07.447Z,25.70
2019-05-01T23:19:50.645Z,20.52
2019-05-01T23:22:40.416Z,18.70
2019-05-01T23:25:30.435Z,22.37
2019-05-01T23:28:20.750Z,18.37
2019-05-01T23:31:10.585Z,16.30
2019-05-01T23:33:59.634Z,18.52
2019-05-01T23:36:48.924Z,23.80
2019-05-01T23:39:40.500Z,23.38
2019-05-01T23:42:29.709Z,16.77
2019-05-01T23:47:55.241Z,23.00
2019-05-01T23:50:44.029Z,18.65
2019-05-01T23:53:33.608Z,20.77
2019-05-01T23:56:23.303Z,12.60
2019-05-01T23:59:12.532Z,17.05
